This is the latest recevied weather packets stored in our database for station/object G8LMY. If no packets are shown the sender has not sent any weather packets the latest 10 day(s).
| Time | Temp. | Humidity | Pressure | Rain* | Wind** | Luminosity | Snow |
|---|---|---|---|---|---|---|---|
| 1777923533 | 13.89° C | 80% | 1013.6 hPa | 0 mm | - | - | - |
| 1777922633 | 13.89° C | 80% | 1013.6 hPa | 0 mm | - | - | - |
| 1777921733 | 14.44° C | 79% | 1013.5 hPa | 0 mm | - | - | - |
| 1777920833 | 14.44° C | 79% | 1013.4 hPa | 0 mm | - | - | - |
| 1777919933 | 14.44° C | 79% | 1013.4 hPa | 0 mm | - | - | - |
| 1777918133 | 15° C | 77% | 1013.2 hPa | 0 mm | - | - | - |
| 1777917233 | 15° C | 77% | 1013.1 hPa | 0 mm | - | - | - |
| 1777916333 | 15.56° C | 76% | 1013 hPa | 0 mm | - | - | - |
| 1777915433 | 16.11° C | 73% | 1012.9 hPa | 0 mm | - | - | - |
| 1777914533 | 16.67° C | 71% | 1013.1 hPa | 0 mm | - | - | - |
| 1777913633 | 17.22° C | 70% | 1013.1 hPa | 0 mm | - | - | - |
| 1777912734 | 16.67° C | 73% | 1013.1 hPa | 0 mm | - | - | - |
| 1777911834 | 15.56° C | 77% | 1013.2 hPa | 0 mm | - | - | - |
| 1777910933 | 15.56° C | 75% | 1013.2 hPa | 0 mm | - | - | - |
| 1777910033 | 16.11° C | 74% | 1013.1 hPa | 0 mm | - | - | - |
| 1777909134 | 17.22° C | 72% | 1013.1 hPa | 0 mm | - | - | - |
| 1777908233 | 17.78° C | 69% | 1013.1 hPa | 0 mm | - | - | - |
| 1777907333 | 17.22° C | 72% | 1013.2 hPa | 0 mm | - | - | - |
| 1777906433 | 17.22° C | 71% | 1013.2 hPa | 0 mm | - | - | - |
| 1777904633 | 16.67° C | 72% | 1013.3 hPa | 0 mm | - | - | - |
| 1777903734 | 16.67° C | 72% | 1013.4 hPa | 0 mm | - | - | - |
| 1777902833 | 16.11° C | 77% | 1013.4 hPa | 0 mm | - | - | - |
| 1777901933 | 15.56° C | 77% | 1013.4 hPa | 0 mm | - | - | - |
| 1777900134 | 15.56° C | 79% | 1013.6 hPa | 0 mm | - | - | - |
| 1777899270 | 15° C | 79% | 1013.5 hPa | 0 mm | - | - | - |
* Rain latest hour (hover to see other rain measurements)
** Current wind speed in m/s (hover to see current wind gust speed)